createdAt,value
2018-09-22T00:00:04.725Z,13.38
2018-09-22T00:02:38.228Z,13.34
2018-09-22T00:05:10.944Z,13.34
2018-09-22T00:07:45.092Z,13.33
2018-09-22T00:10:17.983Z,13.33
2018-09-22T00:12:51.592Z,13.36
2018-09-22T00:15:25.524Z,13.33
2018-09-22T00:17:58.948Z,13.25
2018-09-22T00:20:31.591Z,13.20
2018-09-22T00:23:05.036Z,13.21
2018-09-22T00:25:38.577Z,13.24
2018-09-22T00:28:12.524Z,13.21
2018-09-22T00:30:45.416Z,13.27
2018-09-22T00:33:17.894Z,13.34
2018-09-22T00:35:50.500Z,13.39
2018-09-22T00:38:25.164Z,13.43
2018-09-22T00:40:58.309Z,13.47
2018-09-22T00:43:30.844Z,13.51
2018-09-22T00:46:04.009Z,13.54
2018-09-22T00:48:37.480Z,13.52
2018-09-22T00:51:10.177Z,13.48
2018-09-22T00:53:45.090Z,13.46
2018-09-22T00:56:17.605Z,13.47
2018-09-22T00:58:50.191Z,13.47
2018-09-22T01:01:24.873Z,13.49
2018-09-22T01:03:57.551Z,13.48
2018-09-22T01:06:31.100Z,13.48
2018-09-22T01:09:07.951Z,13.48
2018-09-22T01:11:41.250Z,13.49
2018-09-22T01:14:13.916Z,13.46
2018-09-22T01:16:46.913Z,13.44
2018-09-22T01:19:19.701Z,13.37
2018-09-22T01:21:52.505Z,13.31
2018-09-22T01:24:27.233Z,13.19
2018-09-22T01:26:59.886Z,13.10
2018-09-22T01:29:32.512Z,13.05
2018-09-22T01:32:05.719Z,13.01
2018-09-22T01:34:38.140Z,12.95
2018-09-22T01:37:10.780Z,12.87
2018-09-22T01:39:44.591Z,12.74
2018-09-22T01:42:17.169Z,12.71
2018-09-22T01:44:52.026Z,12.70
2018-09-22T01:47:27.177Z,12.65
2018-09-22T01:49:59.790Z,12.62
2018-09-22T01:52:33.019Z,12.60
2018-09-22T01:55:06.551Z,12.55
2018-09-22T01:57:39.256Z,12.53
2018-09-22T02:00:15.652Z,12.48
2018-09-22T02:02:48.210Z,12.42
2018-09-22T02:05:20.796Z,12.45
2018-09-22T02:07:54.963Z,12.41
2018-09-22T02:10:27.620Z,12.38
2018-09-22T02:13:07.592Z,12.36
2018-09-22T02:15:40.968Z,12.28
2018-09-22T02:18:13.549Z,12.20
2018-09-22T02:20:46.303Z,12.22
2018-09-22T02:23:18.909Z,12.21
2018-09-22T02:25:52.028Z,12.22
2018-09-22T02:28:27.942Z,12.16
2018-09-22T02:31:02.139Z,12.15
2018-09-22T02:33:34.738Z,12.13
2018-09-22T02:36:07.520Z,12.17
2018-09-22T02:38:40.092Z,12.20
2018-09-22T02:41:13.397Z,12.11
2018-09-22T02:43:46.316Z,12.10
2018-09-22T02:46:19.960Z,12.08
2018-09-22T02:48:53.020Z,12.07
2018-09-22T02:51:26.726Z,12.04
2018-09-22T02:54:00.576Z,12.03
2018-09-22T02:56:33.391Z,12.02
2018-09-22T02:59:07.752Z,12.04
2018-09-22T03:01:40.223Z,11.97
2018-09-22T03:04:14.660Z,11.88
2018-09-22T03:06:47.853Z,11.89
2018-09-22T03:09:20.363Z,11.85
2018-09-22T03:11:53.134Z,11.82
2018-09-22T03:14:26.249Z,11.80
2018-09-22T03:16:59.535Z,11.75
2018-09-22T03:19:32.687Z,11.69
2018-09-22T03:22:06.876Z,11.61
2018-09-22T03:24:39.473Z,11.53
2018-09-22T03:27:12.728Z,11.47
2018-09-22T03:29:45.552Z,11.46
2018-09-22T03:32:18.213Z,11.46
2018-09-22T03:34:51.564Z,11.41
2018-09-22T03:37:24.441Z,11.41
2018-09-22T03:39:57.980Z,11.40
2018-09-22T03:42:30.703Z,11.43
2018-09-22T03:45:05.484Z,11.45
2018-09-22T03:47:38.140Z,11.43
2018-09-22T03:50:10.660Z,11.40
2018-09-22T03:52:43.561Z,11.39
2018-09-22T03:55:17.738Z,11.42
2018-09-22T03:57:51.536Z,11.44
2018-09-22T04:00:26.041Z,11.48
2018-09-22T04:02:58.555Z,11.55
2018-09-22T04:05:31.320Z,11.60
2018-09-22T04:08:04.282Z,11.68
2018-09-22T04:10:36.882Z,11.74
2018-09-22T04:13:10.294Z,11.81
2018-09-22T04:15:43.252Z,11.90
2018-09-22T04:18:15.825Z,11.95
2018-09-22T04:20:49.312Z,11.98
2018-09-22T04:23:23.177Z,12.00
2018-09-22T04:25:55.781Z,12.00
2018-09-22T04:28:28.334Z,12.02
2018-09-22T04:31:03.260Z,12.01
2018-09-22T04:33:36.045Z,11.99
2018-09-22T04:36:09.261Z,11.93
2018-09-22T04:38:42.417Z,11.90
2018-09-22T04:41:15.511Z,11.93
2018-09-22T04:43:48.160Z,12.11
2018-09-22T04:46:21.421Z,12.60
2018-09-22T04:48:54.628Z,12.50
2018-09-22T04:51:28.486Z,12.36
2018-09-22T04:54:01.650Z,12.23
2018-09-22T04:56:34.616Z,12.14
2018-09-22T04:59:07.977Z,12.07
2018-09-22T05:01:42.152Z,12.04
2018-09-22T05:04:14.741Z,12.01
2018-09-22T05:06:48.293Z,11.98
2018-09-22T05:09:21.177Z,11.94
2018-09-22T05:11:53.836Z,11.94
2018-09-22T05:14:26.526Z,11.94
2018-09-22T05:17:00.597Z,11.94
2018-09-22T05:19:33.235Z,11.93
2018-09-22T05:22:06.280Z,11.91
2018-09-22T05:24:39.281Z,11.91
2018-09-22T05:27:13.497Z,11.87
2018-09-22T05:29:46.152Z,11.81
2018-09-22T05:32:22.480Z,11.75
2018-09-22T05:34:55.924Z,11.76
2018-09-22T05:37:29.552Z,11.75
2018-09-22T05:40:03.066Z,11.75
2018-09-22T05:42:35.757Z,11.74
2018-09-22T05:45:09.310Z,11.71
2018-09-22T05:47:44.069Z,11.69
2018-09-22T05:50:17.738Z,11.66
2018-09-22T05:52:51.788Z,11.66
2018-09-22T05:55:25.381Z,11.65
2018-09-22T05:57:58.608Z,11.64
2018-09-22T06:00:37.360Z,11.65
2018-09-22T06:03:10.390Z,11.66
2018-09-22T06:05:43.830Z,11.66
2018-09-22T06:08:18.419Z,11.65
2018-09-22T06:10:51.045Z,11.66
2018-09-22T06:13:25.232Z,11.66
2018-09-22T06:15:58.884Z,11.71
2018-09-22T06:18:31.666Z,11.73
2018-09-22T06:21:04.800Z,11.77
2018-09-22T06:23:38.700Z,11.84
2018-09-22T06:26:11.240Z,11.88
2018-09-22T06:28:44.314Z,11.93
2018-09-22T06:31:16.794Z,11.98
2018-09-22T06:33:49.959Z,12.00
2018-09-22T06:36:22.925Z,12.02
2018-09-22T06:38:56.048Z,12.03
2018-09-22T06:41:28.525Z,12.06
2018-09-22T06:44:04.752Z,12.07
2018-09-22T06:46:38.169Z,12.13
2018-09-22T06:49:10.998Z,12.21
2018-09-22T06:51:44.552Z,12.25
2018-09-22T06:54:18.931Z,12.31
2018-09-22T06:56:52.253Z,12.33
2018-09-22T06:59:25.312Z,12.34
2018-09-22T07:01:58.628Z,12.35
2018-09-22T07:04:32.040Z,12.37
2018-09-22T07:07:05.368Z,12.40
2018-09-22T07:09:38.148Z,12.46
2018-09-22T07:12:10.722Z,12.50
2018-09-22T07:14:43.759Z,12.59
2018-09-22T07:17:16.216Z,12.67
2018-09-22T07:19:49.721Z,12.78
2018-09-22T07:22:29.876Z,12.90
2018-09-22T07:25:03.386Z,12.96
2018-09-22T07:27:36.860Z,13.00
2018-09-22T07:30:10.852Z,13.10
2018-09-22T07:32:44.900Z,13.14
2018-09-22T07:35:17.869Z,13.15
2018-09-22T07:37:52.808Z,13.14
2018-09-22T07:40:25.257Z,13.13
2018-09-22T07:42:57.803Z,13.09
2018-09-22T07:45:31.593Z,13.12
2018-09-22T07:48:06.340Z,13.25
2018-09-22T07:50:39.405Z,13.33
2018-09-22T07:53:16.072Z,13.39
2018-09-22T07:55:48.684Z,13.46
2018-09-22T07:58:21.347Z,13.49
2018-09-22T08:00:55.389Z,13.53
2018-09-22T08:03:29.289Z,13.62
2018-09-22T08:06:05.641Z,13.78
2018-09-22T08:08:39.148Z,13.87
2018-09-22T08:11:12.358Z,13.92
2018-09-22T08:13:46.221Z,14.00
2018-09-22T08:16:20.257Z,14.11
2018-09-22T08:18:55.597Z,14.18
2018-09-22T08:21:30.335Z,14.12
2018-09-22T08:24:02.992Z,14.09
2018-09-22T08:26:37.476Z,14.12
2018-09-22T08:29:12.231Z,14.18
2018-09-22T08:31:48.019Z,14.26
2018-09-22T08:34:23.838Z,14.32
2018-09-22T08:36:56.637Z,14.37
2018-09-22T08:39:30.387Z,14.37
2018-09-22T08:42:03.070Z,14.45
2018-09-22T08:44:35.693Z,14.49
2018-09-22T08:47:08.624Z,14.70
2018-09-22T08:49:41.487Z,15.07
2018-09-22T08:52:14.579Z,15.32
2018-09-22T08:54:47.248Z,15.40
2018-09-22T08:57:20.232Z,15.72
2018-09-22T08:59:53.526Z,16.10
2018-09-22T09:02:30.398Z,16.42
2018-09-22T09:05:03.957Z,16.88
2018-09-22T09:07:38.368Z,16.62
2018-09-22T09:10:13.508Z,16.14
2018-09-22T09:12:50.511Z,16.06
2018-09-22T09:15:24.680Z,15.82
2018-09-22T09:17:58.379Z,15.69
2018-09-22T09:20:31.798Z,15.84
2018-09-22T09:23:06.216Z,16.26
2018-09-22T09:25:39.771Z,16.73
2018-09-22T09:28:14.449Z,17.09
2018-09-22T09:30:51.445Z,17.35
2018-09-22T09:33:25.110Z,17.49
2018-09-22T09:35:59.943Z,17.90
2018-09-22T09:38:36.556Z,18.28
2018-09-22T09:41:10.320Z,18.25
2018-09-22T09:43:43.027Z,18.09
2018-09-22T09:46:17.747Z,17.79
2018-09-22T09:48:53.084Z,17.46
2018-09-22T09:51:25.285Z,17.19
2018-09-22T09:54:00.922Z,17.13
2018-09-22T09:56:33.546Z,17.18
2018-09-22T09:59:07.503Z,17.13
2018-09-22T10:01:42.053Z,17.05
2018-09-22T10:04:17.222Z,16.91
2018-09-22T10:06:50.524Z,16.75
2018-09-22T10:09:26.224Z,16.76
2018-09-22T10:11:59.684Z,16.68
2018-09-22T10:14:33.104Z,16.56
2018-09-22T10:17:09.010Z,16.67
2018-09-22T10:19:43.379Z,16.73
2018-09-22T10:22:19.071Z,16.76
2018-09-22T10:24:53.590Z,16.97
2018-09-22T10:27:27.896Z,17.05
2018-09-22T10:30:06.740Z,17.21
2018-09-22T10:32:48.334Z,17.33
2018-09-22T10:35:23.581Z,17.55
2018-09-22T10:37:57.529Z,17.85
2018-09-22T10:40:31.634Z,18.11
2018-09-22T10:43:04.949Z,18.15
2018-09-22T10:45:37.592Z,17.89
2018-09-22T10:48:10.548Z,17.62
2018-09-22T10:50:44.956Z,17.49
2018-09-22T10:53:17.570Z,17.40
2018-09-22T10:55:51.261Z,17.37
2018-09-22T10:58:24.179Z,17.44
2018-09-22T11:00:58.737Z,17.47
2018-09-22T11:03:32.292Z,17.52
2018-09-22T11:06:04.937Z,17.41
2018-09-22T11:08:38.594Z,17.30
2018-09-22T11:11:11.312Z,17.25
2018-09-22T11:13:44.637Z,17.31
2018-09-22T11:16:20.957Z,17.35
2018-09-22T11:18:54.690Z,17.38
2018-09-22T11:21:31.288Z,17.34
2018-09-22T11:24:04.687Z,17.29
2018-09-22T11:26:38.378Z,17.30
2018-09-22T11:29:10.993Z,17.32
2018-09-22T11:31:43.712Z,17.42
2018-09-22T11:34:18.137Z,17.47
2018-09-22T11:36:51.828Z,17.51
2018-09-22T11:39:24.641Z,17.62
2018-09-22T11:41:58.279Z,17.73
2018-09-22T11:44:30.887Z,17.86
2018-09-22T11:47:04.495Z,18.07
2018-09-22T11:49:37.716Z,18.15
2018-09-22T11:52:14.876Z,18.27
2018-09-22T11:54:47.516Z,18.18
2018-09-22T11:57:21.327Z,18.06
2018-09-22T11:59:58.554Z,18.07
2018-09-22T12:02:38.393Z,18.21
2018-09-22T12:05:12.122Z,18.07
2018-09-22T12:07:45.937Z,17.94
2018-09-22T12:10:19.865Z,17.74
2018-09-22T12:12:55.088Z,17.44
2018-09-22T12:15:29.581Z,17.24
2018-09-22T12:18:02.917Z,17.18
2018-09-22T12:20:36.326Z,17.13
2018-09-22T12:23:09.066Z,17.15
2018-09-22T12:25:43.397Z,17.10
2018-09-22T12:28:16.826Z,17.04
2018-09-22T12:30:51.662Z,16.96
2018-09-22T12:33:25.619Z,17.00
2018-09-22T12:36:00.266Z,17.09
2018-09-22T12:38:34.939Z,17.05
2018-09-22T12:41:08.812Z,16.97
2018-09-22T12:43:42.341Z,16.91
2018-09-22T12:46:16.125Z,16.92
2018-09-22T12:48:50.731Z,16.90
2018-09-22T12:51:25.073Z,16.89
2018-09-22T12:54:00.471Z,16.93
2018-09-22T12:56:34.993Z,16.97
2018-09-22T12:59:07.828Z,16.93
2018-09-22T13:01:43.750Z,16.83
2018-09-22T13:04:16.260Z,16.84
2018-09-22T13:06:50.213Z,16.96
2018-09-22T13:09:23.698Z,17.11
2018-09-22T13:11:56.973Z,17.13
2018-09-22T13:14:30.064Z,17.15
2018-09-22T13:17:04.352Z,17.20
2018-09-22T13:19:39.176Z,17.14
2018-09-22T13:22:11.940Z,17.01
2018-09-22T13:24:46.989Z,17.03
2018-09-22T13:27:19.822Z,17.06
2018-09-22T13:29:52.480Z,17.07
2018-09-22T13:32:25.143Z,16.96
2018-09-22T13:34:57.804Z,16.87
2018-09-22T13:37:33.628Z,16.77
2018-09-22T13:40:08.617Z,16.60
2018-09-22T13:42:41.377Z,15.71
2018-09-22T13:45:16.165Z,14.58
2018-09-22T13:48:09.357Z,13.83
2018-09-22T13:50:53.235Z,13.28
2018-09-22T13:53:30.643Z,12.92
2018-09-22T13:56:07.630Z,12.74
2018-09-22T13:58:45.505Z,12.62
2018-09-22T14:01:24.660Z,12.52
2018-09-22T14:04:11.501Z,12.45
2018-09-22T14:06:46.572Z,12.41
2018-09-22T14:09:23.612Z,12.34
2018-09-22T14:11:58.567Z,12.28
2018-09-22T14:14:32.877Z,12.24
2018-09-22T14:17:08.512Z,12.19
2018-09-22T14:19:42.829Z,12.15
2018-09-22T14:22:17.020Z,12.15
2018-09-22T14:24:51.420Z,12.17
2018-09-22T14:27:26.710Z,12.22
2018-09-22T14:30:04.251Z,12.26
2018-09-22T14:32:39.932Z,12.29
2018-09-22T14:35:17.937Z,12.34
2018-09-22T14:37:51.056Z,12.37
2018-09-22T14:40:26.876Z,12.39
2018-09-22T14:43:00.236Z,12.40
2018-09-22T14:45:32.905Z,12.43
2018-09-22T14:48:05.662Z,12.45
2018-09-22T14:50:42.717Z,12.47
2018-09-22T14:53:17.540Z,12.52
2018-09-22T14:55:51.588Z,12.55
2018-09-22T14:58:24.540Z,12.55
2018-09-22T15:00:59.753Z,12.53
2018-09-22T15:03:35.260Z,12.51
2018-09-22T15:06:10.620Z,12.49
2018-09-22T15:08:43.454Z,12.48
2018-09-22T15:11:17.060Z,12.46
2018-09-22T15:13:51.378Z,12.43
2018-09-22T15:16:24.576Z,12.41
2018-09-22T15:18:57.132Z,12.40
2018-09-22T15:21:31.923Z,12.38
2018-09-22T15:24:05.346Z,12.37
2018-09-22T15:26:39.552Z,12.38
2018-09-22T15:29:14.032Z,12.37
2018-09-22T15:31:46.644Z,12.37
2018-09-22T15:34:19.174Z,12.35
2018-09-22T15:36:52.892Z,12.36
2018-09-22T15:39:28.382Z,12.37
2018-09-22T15:42:02.297Z,12.40
2018-09-22T15:44:35.902Z,12.42
2018-09-22T15:47:09.951Z,12.44
2018-09-22T15:49:43.294Z,12.45
2018-09-22T15:52:16.915Z,12.46
2018-09-22T15:54:50.373Z,12.46
2018-09-22T15:57:23.741Z,12.46
2018-09-22T15:59:59.484Z,12.45
2018-09-22T16:02:39.718Z,12.41
2018-09-22T16:05:13.277Z,12.41
2018-09-22T16:07:48.463Z,12.38
2018-09-22T16:10:24.518Z,12.34
2018-09-22T16:12:59.464Z,12.32
2018-09-22T16:15:32.288Z,12.28
2018-09-22T16:18:07.881Z,12.24
2018-09-22T16:20:43.977Z,12.21
2018-09-22T16:23:17.072Z,12.19
2018-09-22T16:25:51.052Z,12.17
2018-09-22T16:28:26.857Z,12.15
2018-09-22T16:30:59.326Z,12.11
2018-09-22T16:33:32.240Z,12.08
2018-09-22T16:36:04.848Z,12.02
2018-09-22T16:38:40.140Z,11.98
2018-09-22T16:41:13.032Z,11.95
2018-09-22T16:43:45.703Z,11.93
2018-09-22T16:46:18.226Z,11.91
2018-09-22T16:48:52.393Z,11.90
2018-09-22T16:51:27.172Z,11.86
2018-09-22T16:54:00.520Z,11.83
2018-09-22T16:56:34.768Z,11.80
2018-09-22T16:59:08.280Z,11.76
2018-09-22T17:01:41.729Z,11.74
2018-09-22T17:04:15.825Z,11.71
2018-09-22T17:06:49.852Z,11.68
2018-09-22T17:09:30.214Z,11.65
2018-09-22T17:12:04.592Z,11.63
2018-09-22T17:14:39.036Z,11.60
2018-09-22T17:17:17.001Z,11.56
2018-09-22T17:19:53.617Z,11.50
2018-09-22T17:22:28.688Z,11.44
2018-09-22T17:25:22.652Z,11.40
2018-09-22T17:28:00.812Z,11.37
2018-09-22T17:30:34.399Z,11.34
2018-09-22T17:33:12.015Z,11.32
2018-09-22T17:35:50.069Z,11.32
2018-09-22T17:38:23.413Z,11.32
2018-09-22T17:41:02.558Z,11.27
2018-09-22T17:43:35.407Z,11.23
2018-09-22T17:46:11.901Z,11.23
2018-09-22T17:48:44.915Z,11.20
2018-09-22T17:51:22.681Z,11.19
2018-09-22T17:53:57.089Z,11.20
2018-09-22T17:56:33.786Z,11.22
2018-09-22T17:59:07.222Z,11.20
2018-09-22T18:01:40.299Z,11.17
2018-09-22T18:04:19.599Z,11.17
2018-09-22T18:06:52.709Z,11.18
2018-09-22T18:09:27.275Z,11.15
2018-09-22T18:12:00.328Z,11.12
2018-09-22T18:14:33.973Z,11.10
2018-09-22T18:17:11.757Z,11.08
2018-09-22T18:19:44.570Z,11.04
2018-09-22T18:22:18.742Z,11.05
2018-09-22T18:24:53.705Z,11.03
2018-09-22T18:27:28.077Z,11.02
2018-09-22T18:30:05.371Z,11.05
2018-09-22T18:32:39.495Z,11.02
2018-09-22T18:35:15.378Z,11.00
2018-09-22T18:37:49.295Z,10.99
2018-09-22T18:40:23.629Z,10.98
2018-09-22T18:42:57.960Z,10.99
2018-09-22T18:45:32.509Z,10.98
2018-09-22T18:48:08.552Z,11.01
2018-09-22T18:50:42.730Z,11.03
2018-09-22T18:53:16.952Z,11.06
2018-09-22T18:55:49.556Z,11.01
2018-09-22T18:58:22.281Z,10.98
2018-09-22T19:00:56.494Z,10.97
2018-09-22T19:03:30.157Z,10.97
2018-09-22T19:06:02.771Z,10.96
2018-09-22T19:08:39.743Z,10.96
2018-09-22T19:11:15.419Z,10.96
2018-09-22T19:13:55.737Z,10.97
2018-09-22T19:16:41.938Z,10.97
2018-09-22T19:19:20.253Z,10.97
2018-09-22T19:22:02.264Z,10.98
2018-09-22T19:24:57.505Z,10.99
2018-09-22T19:27:36.427Z,11.00
2018-09-22T19:30:33.654Z,10.99
2018-09-22T19:33:11.750Z,11.04
2018-09-22T19:35:52.069Z,11.08
2018-09-22T19:38:38.356Z,11.07
2018-09-22T19:41:24.976Z,11.05
2018-09-22T19:44:05.945Z,11.08
2018-09-22T19:46:46.666Z,11.08
2018-09-22T19:49:35.102Z,11.07
2018-09-22T19:52:22.498Z,11.08
2018-09-22T19:54:58.093Z,11.08
2018-09-22T19:57:32.666Z,11.09
2018-09-22T20:00:10.472Z,11.09
2018-09-22T20:02:45.493Z,11.09
2018-09-22T20:05:19.621Z,11.10
2018-09-22T20:07:53.421Z,11.10
2018-09-22T20:10:29.172Z,11.09
2018-09-22T20:13:02.798Z,11.09
2018-09-22T20:15:40.514Z,11.07
2018-09-22T20:18:16.363Z,11.05
2018-09-22T20:20:52.080Z,11.04
2018-09-22T20:23:32.945Z,11.01
2018-09-22T20:26:08.996Z,11.00
2018-09-22T20:28:54.678Z,10.98
2018-09-22T20:31:33.371Z,10.99
2018-09-22T20:34:10.426Z,10.98
2018-09-22T20:36:47.687Z,10.96
2018-09-22T20:39:23.630Z,10.94
2018-09-22T20:42:07.232Z,10.93
2018-09-22T20:44:40.449Z,10.92
2018-09-22T20:47:13.882Z,10.91
2018-09-22T20:49:53.801Z,10.90
2018-09-22T20:52:30.848Z,10.89
2018-09-22T20:55:09.403Z,10.87
2018-09-22T20:57:44.923Z,10.85
2018-09-22T21:00:20.625Z,10.85
2018-09-22T21:02:53.952Z,10.84
2018-09-22T21:05:29.948Z,10.88
2018-09-22T21:08:03.283Z,10.87
2018-09-22T21:10:38.140Z,10.88
2018-09-22T21:13:11.608Z,10.88
2018-09-22T21:15:46.972Z,10.89
2018-09-22T21:18:21.859Z,10.92
2018-09-22T21:20:56.910Z,10.92
2018-09-22T21:23:30.643Z,10.92
2018-09-22T21:26:13.750Z,10.95
2018-09-22T21:28:55.904Z,10.94
2018-09-22T21:31:37.402Z,10.92
2018-09-22T21:34:19.968Z,10.92
2018-09-22T21:37:05.305Z,10.90
2018-09-22T21:39:43.274Z,10.90
2018-09-22T21:42:17.196Z,10.89
2018-09-22T21:44:49.958Z,10.92
2018-09-22T21:47:23.599Z,10.91
2018-09-22T21:49:57.040Z,10.90
2018-09-22T21:52:29.600Z,10.90
2018-09-22T21:55:03.201Z,10.91
2018-09-22T21:57:36.789Z,10.90
2018-09-22T22:00:13.923Z,10.94
2018-09-22T22:02:50.241Z,10.99
2018-09-22T22:05:25.215Z,11.02
2018-09-22T22:08:00.423Z,10.97
2018-09-22T22:10:34.566Z,10.94
2018-09-22T22:13:12.629Z,10.93
2018-09-22T22:15:49.289Z,10.92
2018-09-22T22:18:22.126Z,10.92
2018-09-22T22:20:55.922Z,10.93
2018-09-22T22:23:30.539Z,10.93
2018-09-22T22:26:03.993Z,10.98
2018-09-22T22:28:37.140Z,10.98
2018-09-22T22:31:10.321Z,10.96
2018-09-22T22:33:43.261Z,10.95
2018-09-22T22:36:17.601Z,10.92
2018-09-22T22:38:53.741Z,10.94
2018-09-22T22:41:29.225Z,10.90
2018-09-22T22:44:02.444Z,10.88
2018-09-22T22:46:34.884Z,10.89
2018-09-22T22:49:08.399Z,10.94
2018-09-22T22:51:46.464Z,10.95
2018-09-22T22:54:18.921Z,10.94
2018-09-22T22:56:53.337Z,10.95
2018-09-22T22:59:26.219Z,10.94
2018-09-22T23:01:59.738Z,10.96
2018-09-22T23:04:33.409Z,10.96
2018-09-22T23:07:07.276Z,10.99
2018-09-22T23:09:40.546Z,10.98
2018-09-22T23:12:13.964Z,10.97
2018-09-22T23:14:50.595Z,10.96
2018-09-22T23:17:24.676Z,10.96
2018-09-22T23:19:59.322Z,10.96
2018-09-22T23:22:34.167Z,10.97
2018-09-22T23:25:10.500Z,10.97
2018-09-22T23:27:45.012Z,10.98
2018-09-22T23:30:20.328Z,10.98
2018-09-22T23:32:53.616Z,11.00
2018-09-22T23:35:28.558Z,11.01
2018-09-22T23:38:01.653Z,11.02
2018-09-22T23:40:38.141Z,11.02
2018-09-22T23:43:11.118Z,11.03
2018-09-22T23:45:43.958Z,11.04
2018-09-22T23:48:16.529Z,11.02
2018-09-22T23:50:49.191Z,11.01
2018-09-22T23:53:24.327Z,10.98
2018-09-22T23:55:58.605Z,10.96
2018-09-22T23:58:32.704Z,10.94
